Time;durP1;ratioP1;P1;durP2;ratioP2;P2;SDS_P1;SDS_P2;PMS_P1;PMS_P2;Temp;Humidity;BMP_temperature;BMP_pressure;BME280_temperature;BME280_humidity;BME280_pressure;Samples;Min_cycle;Max_cycle;Signal;HPM_P1;HPM_P2
2023/10/17 00:01:14;;;;;;;6.97;5.82;;;8.00;99.90;;;;;;5013573;28;20053;-75
2023/10/17 00:03:40;;;;;;;6.28;5.63;;;7.90;99.90;;;;;;5014340;28;20045;-73
2023/10/17 00:06:12;;;;;;;9.13;5.60;;;7.80;99.90;;;;;;5014585;28;20046;-73
2023/10/17 00:08:38;;;;;;;10.27;6.63;;;7.80;99.90;;;;;;5014984;28;20166;-73
2023/10/17 00:11:32;;;;;;;9.10;7.50;;;7.80;99.90;;;;;;5014404;28;20478;-73
2023/10/17 00:14:01;;;;;;;6.63;5.90;;;7.80;99.90;;;;;;5013388;28;20471;-73
2023/10/17 00:16:29;;;;;;;8.20;6.50;;;7.80;99.90;;;;;;5013888;28;20510;-74
2023/10/17 00:18:54;;;;;;;8.20;6.55;;;7.60;99.90;;;;;;5014334;28;20065;-73
2023/10/17 00:21:23;;;;;;;7.53;6.40;;;7.50;99.90;;;;;;5014153;28;20046;-74
2023/10/17 00:23:51;;;;;;;10.88;6.10;;;7.40;99.90;;;;;;5013956;28;20089;-74
2023/10/17 00:26:18;;;;;;;7.22;5.97;;;7.30;99.90;;;;;;5013979;28;20046;-74
2023/10/17 00:28:53;;;;;;;9.15;6.70;;;7.30;99.90;;;;;;5012442;28;20050;-74
2023/10/17 00:31:21;;;;;;;6.30;5.65;;;7.20;99.90;;;;;;5014197;28;20050;-74
2023/10/17 00:33:58;;;;;;;6.93;5.82;;;7.30;99.90;;;;;;5012708;28;20104;-74
2023/10/17 00:36:26;;;;;;;6.15;5.43;;;7.30;99.90;;;;;;5015150;28;20069;-73
2023/10/17 00:39:10;;;;;;;8.85;5.28;;;7.20;99.90;;;;;;5015543;28;20129;-73
2023/10/17 00:42:07;;;;;;;9.13;7.28;;;7.30;99.90;;;;;;5015092;28;20116;-74
2023/10/17 00:44:47;;;;;;;12.07;7.13;;;7.30;99.90;;;;;;5015584;28;20100;-74
2023/10/17 00:47:13;;;;;;;9.98;7.15;;;7.10;99.90;;;;;;5016038;28;20054;-74
2023/10/17 00:49:44;;;;;;;6.35;5.70;;;7.00;99.90;;;;;;5013993;28;20506;-73
2023/10/17 00:52:24;;;;;;;6.00;5.40;;;6.90;99.90;;;;;;5013923;28;20057;-73
2023/10/17 00:54:51;;;;;;;7.80;4.00;;;7.00;99.90;;;;;;5014060;28;20061;-73
2023/10/17 00:57:17;;;;;;;4.57;3.45;;;7.00;99.90;;;;;;5014009;28;20124;-73
2023/10/17 00:59:53;;;;;;;5.93;3.30;;;7.10;99.90;;;;;;5013831;28;20050;-73
2023/10/17 01:02:23;;;;;;;6.38;4.13;;;7.10;99.90;;;;;;5013634;28;20042;-73
2023/10/17 01:04:50;;;;;;;4.40;3.85;;;7.10;99.90;;;;;;5014349;28;20071;-73
2023/10/17 01:07:31;;;;;;;4.50;3.40;;;7.00;99.90;;;;;;5013050;28;20046;-73
2023/10/17 01:10:10;;;;;;;3.70;3.17;;;7.00;99.90;;;;;;5013209;28;20048;-73
2023/10/17 01:12:46;;;;;;;3.95;3.15;;;6.90;99.90;;;;;;5013306;28;20050;-73
2023/10/17 01:15:22;;;;;;;3.92;2.95;;;6.90;99.90;;;;;;5013271;28;20064;-74
2023/10/17 01:17:48;;;;;;;3.00;2.70;;;6.90;99.90;;;;;;5012979;28;20081;-73
2023/10/17 01:20:20;;;;;;;4.82;3.42;;;6.90;99.90;;;;;;5013110;28;20045;-73
2023/10/17 01:22:47;;;;;;;5.28;3.28;;;6.90;99.90;;;;;;5013763;28;20121;-73
2023/10/17 01:25:24;;;;;;;5.53;3.33;;;6.80;99.90;;;;;;5012940;28;20058;-74
2023/10/17 01:27:51;;;;;;;3.45;2.70;;;6.80;99.90;;;;;;5013204;28;20205;-74
2023/10/17 01:30:18;;;;;;;4.57;3.25;;;6.80;99.90;;;;;;5012715;28;20056;-74
2023/10/17 01:32:46;;;;;;;3.45;3.08;;;6.70;99.90;;;;;;5011860;28;20501;-74
2023/10/17 01:35:12;;;;;;;3.65;3.35;;;6.70;99.90;;;;;;5012866;28;20092;-74
2023/10/17 01:37:38;;;;;;;4.32;3.03;;;6.70;99.90;;;;;;5011880;28;20050;-73
2023/10/17 01:40:18;;;;;;;3.08;2.60;;;6.60;99.90;;;;;;5013167;28;20108;-74
2023/10/17 01:42:44;;;;;;;6.93;3.78;;;6.60;99.90;;;;;;5013263;28;20098;-74
2023/10/17 01:45:10;;;;;;;4.30;3.28;;;6.60;99.90;;;;;;5011866;28;20522;-74
2023/10/17 01:47:38;;;;;;;6.65;3.55;;;6.70;99.90;;;;;;5012474;28;20046;-73
2023/10/17 01:50:07;;;;;;;5.22;2.80;;;6.70;99.90;;;;;;5011551;28;20041;-74
2023/10/17 01:52:33;;;;;;;4.30;3.33;;;6.70;99.90;;;;;;5013378;28;20529;-74
2023/10/17 01:54:59;;;;;;;6.90;3.42;;;6.70;99.90;;;;;;5012326;28;20054;-73
2023/10/17 01:57:27;;;;;;;6.45;3.45;;;6.70;99.90;;;;;;5012579;28;20058;-74
2023/10/17 01:59:53;;;;;;;3.45;2.97;;;6.70;99.90;;;;;;5012948;28;20050;-74
2023/10/17 02:02:23;;;;;;;4.65;3.70;;;6.60;99.90;;;;;;5013285;28;20081;-73
2023/10/17 02:04:50;;;;;;;5.20;3.00;;;6.60;99.90;;;;;;5013012;28;20046;-74
2023/10/17 02:07:16;;;;;;;4.53;3.42;;;6.60;99.90;;;;;;5012635;28;20042;-74
2023/10/17 02:12:08;;;;;;;4.50;2.55;;;6.60;99.90;;;;;;5012384;28;20054;-73
2023/10/17 02:14:34;;;;;;;8.55;3.60;;;6.60;99.90;;;;;;5012413;28;20042;-73
2023/10/17 02:17:00;;;;;;;3.97;3.13;;;6.60;99.90;;;;;;5010900;28;20435;-73
2023/10/17 02:19:25;;;;;;;6.25;3.42;;;6.60;99.90;;;;;;5012214;28;20112;-73
2023/10/17 02:21:54;;;;;;;5.60;2.38;;;6.50;99.90;;;;;;5012405;28;20041;-73
2023/10/17 02:24:20;;;;;;;3.38;3.03;;;6.40;99.90;;;;;;4995637;28;20080;-73
2023/10/17 02:26:55;;;;;;;3.28;2.90;;;6.30;99.90;;;;;;5012722;28;20037;-73
2023/10/17 02:29:26;;;;;;;4.35;3.00;;;6.30;99.90;;;;;;5012757;28;20105;-73
2023/10/17 02:31:55;;;;;;;4.82;3.10;;;6.20;99.90;;;;;;5011103;28;20074;-73
2023/10/17 02:34:22;;;;;;;4.38;2.75;;;6.60;99.90;;;;;;5011107;28;20050;-74
2023/10/17 02:36:49;;;;;;;4.63;2.67;;;6.20;99.90;;;;;;5012526;28;20104;-74
2023/10/17 02:39:15;;;;;;;6.75;3.25;;;6.00;99.90;;;;;;5011358;28;20087;-73
2023/10/17 02:41:46;;;;;;;2.85;2.55;;;6.00;99.90;;;;;;5011959;28;20491;-73
2023/10/17 02:44:19;;;;;;;3.65;2.40;;;5.90;99.90;;;;;;5012129;28;20498;-73
2023/10/17 02:46:45;;;;;;;4.32;2.85;;;5.80;99.90;;;;;;5011468;28;20127;-73
2023/10/17 02:49:13;;;;;;;3.97;2.80;;;5.80;99.90;;;;;;4995247;28;20053;-73
2023/10/17 02:51:43;;;;;;;4.55;3.33;;;5.70;99.90;;;;;;5010798;28;20093;-74
2023/10/17 02:54:13;;;;;;;3.22;2.92;;;5.80;99.90;;;;;;4994835;28;20061;-73
2023/10/17 02:56:46;;;;;;;2.47;2.08;;;5.70;99.90;;;;;;5012884;28;20053;-73
2023/10/17 02:59:12;;;;;;;2.85;2.30;;;5.60;99.90;;;;;;5012573;28;20050;-74
2023/10/17 03:01:39;;;;;;;4.10;2.67;;;5.50;99.90;;;;;;5012135;28;20084;-73
2023/10/17 03:04:11;;;;;;;5.88;2.78;;;5.60;99.90;;;;;;5012440;28;20089;-74
2023/10/17 03:06:41;;;;;;;3.25;2.75;;;5.80;99.90;;;;;;5012710;28;20507;-73
2023/10/17 03:09:39;;;;;;;2.50;2.30;;;5.80;99.90;;;;;;5014174;28;20123;-74
2023/10/17 03:17:19;;;;;;;6.90;3.85;;;5.80;99.90;;;;;;4995352;28;20181;-73
2023/10/17 03:19:44;;;;;;;4.15;3.70;;;5.70;99.90;;;;;;5015440;28;20046;-73
2023/10/17 03:22:16;;;;;;;3.88;3.55;;;5.70;99.90;;;;;;5015341;28;20046;-73
2023/10/17 03:24:46;;;;;;;16.83;11.18;;;5.60;99.90;;;;;;5013771;28;20046;-74
2023/10/17 03:27:26;;;;;;;13.68;8.82;;;5.60;99.90;;;;;;5014896;28;20056;-74
2023/10/17 03:29:52;;;;;;;15.73;9.45;;;5.40;99.90;;;;;;5014347;28;20485;-73
2023/10/17 03:32:21;;;;;;;13.60;9.20;;;5.40;99.90;;;;;;5014916;28;20100;-73
2023/10/17 03:34:52;;;;;;;14.23;9.85;;;5.30;99.90;;;;;;5014648;28;20053;-73
2023/10/17 03:39:54;;;;;;;10.45;7.90;;;5.20;99.90;;;;;;5014166;28;20049;-74
2023/10/17 03:45:12;;;;;;;7.38;4.80;;;5.10;99.90;;;;;;5014548;28;20103;-74
2023/10/17 03:47:39;;;;;;;2.67;2.30;;;5.10;99.90;;;;;;5014379;28;20137;-74
2023/10/17 03:50:08;;;;;;;5.88;2.38;;;5.10;99.90;;;;;;5014094;28;20520;-74
2023/10/17 03:52:33;;;;;;;3.38;2.65;;;5.10;99.90;;;;;;5013109;28;20085;-74
2023/10/17 03:54:59;;;;;;;2.92;1.92;;;5.00;99.90;;;;;;5014880;28;20057;-74
2023/10/17 03:57:28;;;;;;;2.38;1.67;;;5.10;99.90;;;;;;5013386;28;20056;-74
2023/10/17 03:59:57;;;;;;;2.25;1.98;;;5.10;99.90;;;;;;5014271;28;20053;-74
2023/10/17 04:02:24;;;;;;;2.08;1.10;;;5.10;99.90;;;;;;5014437;28;20058;-74
2023/10/17 04:04:57;;;;;;;2.80;1.98;;;5.10;99.90;;;;;;5014193;28;20482;-74
2023/10/17 04:07:26;;;;;;;1.77;1.33;;;5.30;99.90;;;;;;5013683;28;20065;-76
2023/10/17 04:09:53;;;;;;;4.55;1.73;;;5.40;99.90;;;;;;5015195;28;20080;-74
2023/10/17 04:12:37;;;;;;;2.35;1.20;;;5.50;99.90;;;;;;5015501;28;20072;-73
2023/10/17 04:15:07;;;;;;;2.38;2.17;;;5.50;99.90;;;;;;5015762;28;20062;-74
2023/10/17 04:17:36;;;;;;;2.55;2.25;;;5.60;99.90;;;;;;5015428;28;20046;-74
2023/10/17 04:20:11;;;;;;;2.75;2.42;;;5.60;99.90;;;;;;5013692;28;20476;-73
2023/10/17 04:22:43;;;;;;;1.80;1.70;;;5.60;99.90;;;;;;5014565;28;20050;-74
2023/10/17 04:28:16;;;;;;;4.15;2.40;;;5.50;99.90;;;;;;5014104;28;20058;-82
2023/10/17 04:34:26;;;;;;;3.42;2.33;;;5.60;99.90;;;;;;4991930;28;20096;-74
2023/10/17 04:36:53;;;;;;;4.13;2.85;;;5.60;99.90;;;;;;4991640;28;20052;-74
2023/10/17 04:39:25;;;;;;;4.75;4.07;;;5.60;99.90;;;;;;4975531;28;20085;-73
2023/10/17 04:44:20;;;;;;;5.60;3.67;;;5.60;99.90;;;;;;4991538;28;20520;-74
2023/10/17 04:49:31;;;;;;;4.25;2.28;;;5.60;99.90;;;;;;4992190;28;20065;-74
2023/10/17 04:52:06;;;;;;;3.60;3.28;;;5.50;99.90;;;;;;4991436;28;20104;-74
2023/10/17 04:57:04;;;;;;;4.95;4.18;;;5.50;99.90;;;;;;4991897;28;20484;-73
2023/10/17 05:07:53;;;;;;;9.18;4.72;;;5.70;99.90;;;;;;5013136;28;20064;-74
2023/10/17 06:18:57;;;;;;;7.13;6.13;;;7.00;99.90;;;;;;5011641;28;20046;-74
2023/10/17 06:21:35;;;;;;;7.55;6.18;;;7.00;99.90;;;;;;5012421;28;20097;-73
2023/10/17 06:26:46;;;;;;;7.80;6.75;;;7.10;99.90;;;;;;5012365;28;20056;-74
2023/10/17 06:34:18;;;;;;;6.15;5.07;;;7.20;99.90;;;;;;5011264;28;20057;-74
2023/10/17 06:36:49;;;;;;;7.38;5.95;;;7.20;99.90;;;;;;5011289;28;20127;-73
2023/10/17 06:39:23;;;;;;;8.48;6.15;;;7.20;99.90;;;;;;5011450;28;20049;-73
2023/10/17 06:41:52;;;;;;;10.57;6.47;;;7.20;99.90;;;;;;5013445;28;20128;-73
2023/10/17 06:44:26;;;;;;;8.52;6.82;;;7.30;99.90;;;;;;5016065;28;20050;-73
2023/10/17 06:54:52;;;;;;;7.65;5.93;;;7.50;99.90;;;;;;5014974;28;20069;-74
2023/10/17 06:57:33;;;;;;;10.40;7.25;;;7.60;99.90;;;;;;5015228;28;20565;-73
2023/10/17 07:00:15;;;;;;;7.47;6.72;;;7.50;99.90;;;;;;5015681;28;20050;-73
2023/10/17 07:02:43;;;;;;;7.63;6.63;;;7.60;99.90;;;;;;4998821;28;20046;-73
2023/10/17 07:05:09;;;;;;;9.45;6.45;;;7.60;99.90;;;;;;5015825;28;20285;-73
2023/10/17 07:07:44;;;;;;;7.55;6.50;;;7.70;99.90;;;;;;5015200;28;20485;-73
2023/10/17 07:10:24;;;;;;;10.43;6.95;;;7.80;99.90;;;;;;5014951;28;20118;-73
2023/10/17 07:13:27;;;;;;;8.15;7.32;;;7.90;99.90;;;;;;5015552;28;20476;-73
2023/10/17 07:15:54;;;;;;;8.23;6.35;;;8.00;99.90;;;;;;5015334;28;20048;-73
2023/10/17 07:23:45;;;;;;;9.52;7.32;;;8.20;99.90;;;;;;5015131;28;20508;-74
2023/10/17 07:26:24;;;;;;;8.25;6.22;;;8.20;99.90;;;;;;5015402;28;20041;-69
2023/10/17 07:28:52;;;;;;;6.60;5.85;;;8.30;99.90;;;;;;5015006;28;20053;-74
2023/10/17 07:31:20;;;;;;;9.30;6.20;;;8.30;99.90;;;;;;5014975;28;20069;-75
2023/10/17 07:36:31;;;;;;;7.65;6.95;;;8.50;99.90;;;;;;5015122;28;20089;-73
2023/10/17 07:38:57;;;;;;;7.68;6.75;;;8.50;99.90;;;;;;5014821;28;20605;-73
2023/10/17 07:41:38;;;;;;;9.20;6.60;;;8.60;99.90;;;;;;5016734;28;20162;-73
2023/10/17 07:44:19;;;;;;;7.80;6.00;;;8.70;99.90;;;;;;5015784;28;20066;-73
2023/10/17 07:46:50;;;;;;;8.60;6.00;;;8.80;99.90;;;;;;5016942;28;20050;-73
2023/10/17 07:49:25;;;;;;;10.55;5.93;;;8.90;99.90;;;;;;5014414;28;20046;-73
2023/10/17 07:51:52;;;;;;;9.27;6.35;;;8.90;99.90;;;;;;5013663;28;20085;-73
2023/10/17 07:54:18;;;;;;;7.60;5.97;;;9.10;99.90;;;;;;5013948;28;20099;-73
2023/10/17 07:56:50;;;;;;;9.10;6.35;;;9.10;99.90;;;;;;5014590;28;20064;-73
2023/10/17 07:59:18;;;;;;;8.43;6.72;;;9.30;99.90;;;;;;5014786;28;20050;-73
2023/10/17 08:01:48;;;;;;;10.00;6.13;;;9.40;99.90;;;;;;5012936;28;20054;-73
2023/10/17 08:04:26;;;;;;;7.97;6.40;;;9.50;99.90;;;;;;5014798;28;20049;-73
2023/10/17 08:06:53;;;;;;;8.80;6.85;;;9.60;99.90;;;;;;5014708;28;20112;-73
2023/10/17 08:11:59;;;;;;;7.72;7.00;;;10.00;99.90;;;;;;5013727;28;20524;-74
2023/10/17 08:14:33;;;;;;;8.40;7.43;;;10.10;99.90;;;;;;5014072;28;20050;-73
2023/10/17 08:17:00;;;;;;;6.90;6.30;;;10.40;99.90;;;;;;5013866;28;20049;-73
2023/10/17 08:19:29;;;;;;;9.82;6.07;;;10.60;99.90;;;;;;5014324;28;20055;-73
2023/10/17 08:24:40;;;;;;;7.57;5.65;;;10.90;99.90;;;;;;5014346;28;20061;-73
2023/10/17 08:27:13;;;;;;;7.60;4.85;;;10.90;99.90;;;;;;5013930;28;20096;-74
2023/10/17 08:29:49;;;;;;;6.57;4.43;;;11.00;99.90;;;;;;5013826;28;20085;-73
2023/10/17 08:34:59;;;;;;;5.55;4.82;;;11.10;99.90;;;;;;5013212;28;20416;-74
2023/10/17 08:37:30;;;;;;;7.55;4.72;;;11.30;99.90;;;;;;5013772;28;20080;-73
2023/10/17 08:39:59;;;;;;;7.80;4.20;;;11.40;99.90;;;;;;5014349;28;20042;-73
2023/10/17 08:42:31;;;;;;;8.43;4.32;;;11.60;99.90;;;;;;5013711;28;20115;-74
2023/10/17 08:44:59;;;;;;;6.90;4.30;;;11.80;99.90;;;;;;5013590;28;20077;-73
2023/10/17 08:47:27;;;;;;;8.50;4.13;;;11.80;99.90;;;;;;5013421;28;20500;-74
2023/10/17 08:49:55;;;;;;;5.95;4.13;;;11.80;99.90;;;;;;5013910;28;20057;-72
2023/10/17 08:52:23;;;;;;;5.13;3.60;;;11.80;99.90;;;;;;5013932;28;20053;-72
2023/10/17 08:54:49;;;;;;;4.82;3.33;;;11.90;99.90;;;;;;5013210;28;20049;-72
2023/10/17 08:57:15;;;;;;;4.40;3.63;;;11.80;99.90;;;;;;5013315;28;20156;-73
2023/10/17 09:04:43;;;;;;;6.15;3.28;;;11.80;99.90;;;;;;5013440;28;20054;-73
2023/10/17 09:07:18;;;;;;;5.57;2.60;;;11.80;99.90;;;;;;4995963;28;20078;-73
2023/10/17 09:09:47;;;;;;;4.05;3.10;;;11.80;99.90;;;;;;5013269;28;20050;-73
2023/10/17 09:12:19;;;;;;;5.22;3.00;;;11.80;99.90;;;;;;5011839;28;20053;-76
2023/10/17 09:14:49;;;;;;;3.75;2.75;;;11.80;99.90;;;;;;5012073;28;20060;-73
2023/10/17 09:17:30;;;;;;;4.55;2.70;;;11.80;99.90;;;;;;5012719;28;20069;-73
2023/10/17 09:20:04;;;;;;;4.85;2.63;;;11.90;99.90;;;;;;5012876;28;20050;-73
2023/10/17 09:22:29;;;;;;;3.55;2.50;;;11.90;99.90;;;;;;5012956;28;20449;-73
2023/10/17 09:24:56;;;;;;;4.53;2.85;;;12.00;99.90;;;;;;5013122;28;20057;-73
2023/10/17 09:27:22;;;;;;;8.27;2.72;;;12.10;99.90;;;;;;4995258;28;20526;-72
2023/10/17 09:29:48;;;;;;;5.15;2.30;;;12.20;99.90;;;;;;5012526;28;20042;-74
2023/10/17 09:32:37;;;;;;;3.95;2.63;;;12.30;99.90;;;;;;5013180;28;20042;-73
2023/10/17 09:35:13;;;;;;;5.55;2.60;;;12.40;99.90;;;;;;5012885;28;20056;-73
2023/10/17 09:37:56;;;;;;;3.72;1.90;;;12.50;99.90;;;;;;5012702;28;20120;-73
2023/10/17 09:40:27;;;;;;;3.17;2.08;;;12.70;99.90;;;;;;5012874;28;20474;-73
2023/10/17 09:42:53;;;;;;;3.15;2.40;;;12.90;99.90;;;;;;5013074;28;20410;-72
2023/10/17 09:45:20;;;;;;;2.15;1.95;;;13.10;99.90;;;;;;5012687;28;20042;-72
2023/10/17 09:47:52;;;;;;;5.45;2.47;;;13.40;99.90;;;;;;5012505;28;20085;-73
2023/10/17 09:50:20;;;;;;;4.88;2.60;;;13.50;99.90;;;;;;5013098;28;20046;-70
2023/10/17 09:52:48;;;;;;;3.40;2.17;;;13.70;99.90;;;;;;5012831;28;20045;-72
2023/10/17 09:55:17;;;;;;;2.80;1.80;;;13.80;99.90;;;;;;5012614;28;20046;-73
2023/10/17 09:57:56;;;;;;;2.97;1.80;;;14.00;99.90;;;;;;5012562;28;20527;-74
2023/10/17 10:00:46;;;;;;;3.13;2.05;;;14.20;99.90;;;;;;5012424;28;20042;-73
2023/10/17 10:03:14;;;;;;;4.35;1.90;;;14.70;99.90;;;;;;5012753;28;20046;-74
2023/10/17 10:05:39;;;;;;;2.15;1.80;;;15.30;99.90;;;;;;5011980;28;20161;-73
2023/10/17 10:08:33;;;;;;;4.13;1.98;;;16.50;99.90;;;;;;5012248;28;20084;-73
2023/10/17 10:11:00;;;;;;;3.17;1.80;;;18.10;99.50;;;;;;5012327;28;20486;-73
2023/10/17 10:13:26;;;;;;;2.78;1.90;;;19.70;98.40;;;;;;5012573;28;20046;-74
2023/10/17 10:15:59;;;;;;;2.53;1.80;;;20.80;95.50;;;;;;5010953;28;20046;-74
2023/10/17 10:18:38;;;;;;;2.33;1.67;;;21.60;93.60;;;;;;5016059;28;20046;-74
2023/10/17 10:21:07;;;;;;;5.03;1.90;;;21.70;91.70;;;;;;5015935;28;20129;-73
2023/10/17 10:23:35;;;;;;;4.82;1.90;;;21.50;91.50;;;;;;5016195;28;20037;-74
2023/10/17 10:26:13;;;;;;;5.55;1.88;;;21.30;91.70;;;;;;5016330;28;20054;-71
2023/10/17 10:28:43;;;;;;;3.08;1.65;;;20.30;91.60;;;;;;5016180;28;20050;-74
2023/10/17 10:31:38;;;;;;;3.55;1.98;;;18.90;93.20;;;;;;5014819;28;20112;-74
2023/10/17 10:34:06;;;;;;;2.55;1.92;;;17.80;93.70;;;;;;5009137;28;20061;-74
2023/10/17 10:36:33;;;;;;;3.60;2.00;;;16.90;95.40;;;;;;5014614;28;20091;-74
2023/10/17 10:39:12;;;;;;;2.45;2.10;;;16.30;96.00;;;;;;5016009;28;20049;-73
2023/10/17 10:41:54;;;;;;;3.90;1.73;;;15.80;96.00;;;;;;5015301;28;20054;-73
2023/10/17 10:44:20;;;;;;;2.63;1.60;;;15.40;96.80;;;;;;5016445;28;20053;-72
2023/10/17 10:46:46;;;;;;;7.40;2.15;;;15.00;97.40;;;;;;5015609;28;20089;-72
2023/10/17 10:49:11;;;;;;;2.47;1.60;;;14.80;97.60;;;;;;5015555;28;20111;-74
2023/10/17 10:51:44;;;;;;;3.53;1.75;;;14.60;97.90;;;;;;5015505;28;20053;-73
2023/10/17 10:54:10;;;;;;;3.72;2.17;;;14.40;97.80;;;;;;5015673;28;20061;-71
2023/10/17 10:56:37;;;;;;;3.65;1.50;;;14.30;98.20;;;;;;5015909;28;20046;-70
2023/10/17 10:59:04;;;;;;;3.05;1.67;;;14.20;98.90;;;;;;4998637;28;20053;-70
2023/10/17 11:01:30;;;;;;;1.70;1.60;;;14.10;99.10;;;;;;5015977;28;20060;-70
2023/10/17 11:03:58;;;;;;;4.82;1.80;;;14.00;98.20;;;;;;5015773;28;20137;-71
2023/10/17 11:06:29;;;;;;;2.75;1.52;;;13.90;98.20;;;;;;5015093;28;20469;-71
2023/10/17 11:08:55;;;;;;;1.70;1.60;;;13.80;98.20;;;;;;5015644;28;20461;-71
2023/10/17 11:11:21;;;;;;;2.95;1.83;;;13.80;98.50;;;;;;5017737;28;20054;-71
2023/10/17 11:13:49;;;;;;;1.50;1.40;;;13.70;98.20;;;;;;5017124;28;20045;-71
2023/10/17 11:16:24;;;;;;;3.15;1.75;;;13.70;98.20;;;;;;5017001;28;20049;-71
2023/10/17 11:18:51;;;;;;;4.18;1.70;;;13.70;98.80;;;;;;5015407;28;20050;-71
2023/10/17 11:21:21;;;;;;;5.65;1.50;;;13.60;99.00;;;;;;5015382;28;20171;-79
2023/10/17 11:23:54;;;;;;;2.20;1.90;;;13.60;98.10;;;;;;5015520;28;20479;-80
2023/10/17 11:26:25;;;;;;;4.60;1.83;;;13.50;98.40;;;;;;5015533;28;20096;-79
2023/10/17 11:28:52;;;;;;;2.97;1.75;;;13.50;98.10;;;;;;5014086;28;20050;-80
2023/10/17 11:31:22;;;;;;;3.75;1.73;;;13.40;98.00;;;;;;5014222;28;20088;-73
2023/10/17 11:34:12;;;;;;;1.85;1.48;;;13.40;98.00;;;;;;5014976;28;20046;-73
2023/10/17 11:36:45;;;;;;;5.25;1.65;;;13.40;98.20;;;;;;5014673;28;20050;-74
2023/10/17 11:39:15;;;;;;;1.92;1.80;;;13.40;98.30;;;;;;5013863;28;20050;-73
2023/10/17 11:41:53;;;;;;;4.25;1.45;;;13.30;97.70;;;;;;5013664;28;20517;-74
2023/10/17 11:44:23;;;;;;;1.58;1.48;;;13.30;98.10;;;;;;5014855;28;20060;-73
2023/10/17 11:46:58;;;;;;;3.13;2.13;;;13.20;98.70;;;;;;5014423;28;20113;-74
2023/10/17 11:49:30;;;;;;;3.78;2.10;;;13.30;98.00;;;;;;5014288;28;20146;-72
2023/10/17 11:52:01;;;;;;;3.40;1.60;;;13.20;98.40;;;;;;5014434;28;20046;-74
2023/10/17 11:54:30;;;;;;;6.68;1.92;;;13.30;98.40;;;;;;5013861;28;20046;-73
2023/10/17 11:57:09;;;;;;;2.67;2.20;;;13.20;98.40;;;;;;5014251;28;20096;-73
2023/10/17 11:59:35;;;;;;;3.47;1.80;;;13.30;98.20;;;;;;5014578;28;20054;-73
2023/10/17 12:02:03;;;;;;;2.60;1.90;;;13.20;98.30;;;;;;5013117;28;20096;-72
2023/10/17 12:04:29;;;;;;;4.38;1.88;;;13.20;98.40;;;;;;5012713;28;20152;-72
2023/10/17 12:06:55;;;;;;;2.67;1.52;;;13.30;98.40;;;;;;5014051;28;20046;-73
2023/10/17 12:09:23;;;;;;;2.17;1.95;;;13.30;98.50;;;;;;5014229;28;20058;-73
2023/10/17 12:11:51;;;;;;;2.10;1.70;;;13.30;98.70;;;;;;5014024;28;20073;-73
2023/10/17 12:14:20;;;;;;;2.92;2.28;;;13.40;98.60;;;;;;5014068;28;20502;-73
2023/10/17 12:16:53;;;;;;;2.05;1.92;;;13.40;98.80;;;;;;5014254;28;20084;-73
2023/10/17 12:19:26;;;;;;;2.58;1.80;;;13.40;98.70;;;;;;5014000;28;20049;-73
2023/10/17 12:21:53;;;;;;;4.70;2.13;;;13.40;98.80;;;;;;5014265;28;20053;-73
2023/10/17 12:24:42;;;;;;;2.88;1.90;;;13.30;98.70;;;;;;5014078;28;20053;-81
2023/10/17 12:30:48;;;;;;;5.50;1.92;;;13.40;98.60;;;;;;5013518;28;20048;-73
2023/10/17 12:33:14;;;;;;;3.97;2.22;;;13.40;98.90;;;;;;5013883;28;20045;-73
2023/10/17 12:35:46;;;;;;;2.45;1.83;;;13.40;98.70;;;;;;5013428;28;20060;-71
2023/10/17 12:38:14;;;;;;;2.50;1.90;;;13.50;98.80;;;;;;5012799;28;20050;-73
2023/10/17 12:40:43;;;;;;;5.30;2.13;;;13.60;98.60;;;;;;5013254;28;20041;-73
2023/10/17 12:43:11;;;;;;;3.40;2.00;;;13.60;98.80;;;;;;5013721;28;20046;-72
2023/10/17 12:45:38;;;;;;;2.05;1.70;;;13.60;99.30;;;;;;5013776;28;20049;-73
2023/10/17 12:48:06;;;;;;;2.55;1.88;;;13.60;99.10;;;;;;5013817;28;20073;-73
2023/10/17 12:50:33;;;;;;;2.47;1.60;;;13.60;98.60;;;;;;5013911;28;20046;-73
2023/10/17 12:52:59;;;;;;;2.20;1.95;;;13.60;98.40;;;;;;5012833;28;20184;-72
2023/10/17 12:55:25;;;;;;;2.38;2.03;;;13.60;98.10;;;;;;5014216;28;20100;-73
2023/10/17 12:57:51;;;;;;;2.42;1.58;;;13.60;98.50;;;;;;5013534;28;20450;-73
2023/10/17 13:00:21;;;;;;;3.33;2.08;;;13.60;98.00;;;;;;5013502;28;20050;-73
2023/10/17 13:02:47;;;;;;;1.83;1.60;;;13.60;98.30;;;;;;5012199;28;20056;-73
2023/10/17 13:05:13;;;;;;;4.20;1.70;;;13.60;98.50;;;;;;5013629;28;20477;-73
2023/10/17 13:07:40;;;;;;;2.00;1.77;;;13.60;98.20;;;;;;4996017;28;20058;-73
2023/10/17 13:10:07;;;;;;;9.25;2.15;;;13.60;98.50;;;;;;5012679;28;20113;-72
2023/10/17 13:12:33;;;;;;;3.15;1.50;;;13.60;98.80;;;;;;5013413;28;20049;-73
2023/10/17 13:14:59;;;;;;;4.68;2.03;;;13.60;98.70;;;;;;5013499;28;20537;-73
2023/10/17 13:17:25;;;;;;;3.63;1.80;;;13.60;98.60;;;;;;5012502;28;20045;-73
2023/10/17 13:19:52;;;;;;;3.38;1.80;;;13.70;98.70;;;;;;5012086;28;20058;-73
2023/10/17 13:22:20;;;;;;;2.15;1.30;;;13.70;98.80;;;;;;5011802;28;20054;-73
2023/10/17 13:24:48;;;;;;;2.50;1.35;;;13.70;98.50;;;;;;5013470;28;20046;-72
2023/10/17 13:27:15;;;;;;;3.92;1.30;;;13.80;98.70;;;;;;5011954;28;20049;-73
2023/10/17 13:29:42;;;;;;;1.88;1.17;;;13.70;98.70;;;;;;5011450;28;20052;-73
2023/10/17 13:32:07;;;;;;;0.88;0.88;;;13.70;98.10;;;;;;5012927;28;20045;-73
2023/10/17 13:34:42;;;;;;;2.60;1.17;;;13.70;98.10;;;;;;5012952;28;20494;-73
2023/10/17 13:37:11;;;;;;;2.17;1.00;;;13.60;98.10;;;;;;5012958;28;20451;-72
2023/10/17 13:39:37;;;;;;;1.40;1.08;;;13.60;98.50;;;;;;5011630;28;20479;-72
2023/10/17 13:42:03;;;;;;;3.22;1.33;;;13.60;98.30;;;;;;5011580;28;20052;-73
2023/10/17 13:44:30;;;;;;;1.80;1.63;;;13.60;98.10;;;;;;5013328;28;20045;-73
2023/10/17 13:46:56;;;;;;;2.63;1.35;;;13.60;97.90;;;;;;5012273;28;20465;-73
2023/10/17 13:49:23;;;;;;;3.88;1.40;;;13.60;97.90;;;;;;5013102;28;20075;-73
2023/10/17 13:51:48;;;;;;;1.55;1.23;;;13.60;98.00;;;;;;5010692;28;20054;-72
2023/10/17 13:54:15;;;;;;;2.50;1.23;;;13.60;98.10;;;;;;5012234;28;20506;-73
2023/10/17 13:56:41;;;;;;;2.00;1.13;;;13.60;97.90;;;;;;5011691;28;20125;-73
2023/10/17 13:59:10;;;;;;;2.45;1.20;;;13.60;97.80;;;;;;5011947;28;20073;-75
2023/10/17 14:01:45;;;;;;;2.72;1.00;;;13.70;97.90;;;;;;5012673;28;20107;-72
2023/10/17 14:04:11;;;;;;;1.55;1.20;;;13.60;98.20;;;;;;5011808;28;20054;-73
2023/10/17 14:06:42;;;;;;;2.20;1.08;;;13.50;98.30;;;;;;5013132;28;20420;-73
2023/10/17 14:09:14;;;;;;;1.50;1.25;;;13.60;98.50;;;;;;5012551;28;20061;-73
2023/10/17 14:11:47;;;;;;;2.88;1.70;;;13.60;98.00;;;;;;5012044;28;20496;-74
2023/10/17 14:14:15;;;;;;;2.20;1.65;;;13.50;97.80;;;;;;5012773;28;20049;-73
2023/10/17 14:16:41;;;;;;;3.90;1.40;;;13.40;97.90;;;;;;4994887;28;20044;-73
2023/10/17 14:19:15;;;;;;;2.58;1.20;;;13.40;98.10;;;;;;5012218;28;20121;-73
2023/10/17 14:22:01;;;;;;;2.25;1.52;;;13.30;97.90;;;;;;5011179;28;20088;-73
2023/10/17 14:24:27;;;;;;;1.38;1.17;;;13.20;98.10;;;;;;5012248;28;20085;-73
2023/10/17 14:26:53;;;;;;;6.60;1.40;;;13.20;98.60;;;;;;5012374;28;20062;-73
2023/10/17 14:29:21;;;;;;;1.60;0.88;;;13.20;98.70;;;;;;5012338;28;20100;-73
2023/10/17 14:31:47;;;;;;;1.45;1.13;;;13.20;98.10;;;;;;5012163;28;20094;-73
2023/10/17 14:34:13;;;;;;;2.25;1.35;;;13.20;98.50;;;;;;5012157;28;20041;-72
2023/10/17 14:36:39;;;;;;;1.92;1.40;;;13.20;98.80;;;;;;5011265;28;20054;-73
2023/10/17 14:39:09;;;;;;;1.75;1.13;;;13.20;99.00;;;;;;5013298;28;20133;-73
2023/10/17 14:41:40;;;;;;;3.17;1.60;;;13.20;98.90;;;;;;5013732;28;20049;-73
2023/10/17 14:44:06;;;;;;;1.35;1.10;;;13.10;98.80;;;;;;5013502;28;20085;-73
2023/10/17 14:46:32;;;;;;;2.25;1.20;;;13.00;98.70;;;;;;5011939;28;20041;-74
2023/10/17 14:48:58;;;;;;;1.55;1.15;;;12.90;98.70;;;;;;5012629;28;20050;-72
2023/10/17 14:51:24;;;;;;;3.28;1.42;;;12.50;98.80;;;;;;5012592;28;20049;-71
2023/10/17 14:53:50;;;;;;;2.30;1.85;;;12.70;98.70;;;;;;5012592;28;20046;-72
2023/10/17 14:56:16;;;;;;;1.20;0.95;;;12.60;99.10;;;;;;5012204;28;20046;-69
2023/10/17 14:58:49;;;;;;;1.25;1.15;;;12.60;99.50;;;;;;5012166;28;20490;-70
2023/10/17 15:01:16;;;;;;;1.67;1.17;;;12.50;99.30;;;;;;5011729;28;20057;-69
2023/10/17 15:03:44;;;;;;;2.88;1.70;;;12.40;99.20;;;;;;5014513;28;20061;-68
2023/10/17 15:06:10;;;;;;;1.95;1.05;;;12.40;99.50;;;;;;5015018;28;20466;-68
2023/10/17 15:08:36;;;;;;;2.22;1.27;;;12.30;99.70;;;;;;5014861;28;20050;-69
2023/10/17 15:11:04;;;;;;;5.35;1.10;;;12.30;99.90;;;;;;5015182;28;20045;-69
2023/10/17 15:13:31;;;;;;;3.83;1.65;;;12.20;99.90;;;;;;5015193;28;20152;-72
2023/10/17 15:15:57;;;;;;;1.77;1.08;;;12.10;99.90;;;;;;5015016;28;20089;-71
2023/10/17 15:18:22;;;;;;;2.63;1.40;;;12.10;99.90;;;;;;5014839;28;20054;-72
2023/10/17 15:20:49;;;;;;;3.67;1.40;;;12.10;99.90;;;;;;5013896;28;20038;-72
2023/10/17 15:23:14;;;;;;;3.33;1.58;;;12.00;99.90;;;;;;5014031;28;20448;-72
2023/10/17 15:25:40;;;;;;;5.10;1.33;;;12.00;99.90;;;;;;5015049;28;20424;-72
2023/10/17 15:28:06;;;;;;;1.50;1.40;;;11.90;99.90;;;;;;5015422;28;20045;-72
2023/10/17 15:30:32;;;;;;;3.22;1.40;;;12.40;99.90;;;;;;5014856;28;20044;-72